createdAt,value
2018-09-11T00:02:07.937Z,3.03
2018-09-11T00:04:35.275Z,3.43
2018-09-11T00:07:02.595Z,3.40
2018-09-11T00:09:30.050Z,3.90
2018-09-11T00:11:58.274Z,3.80
2018-09-11T00:14:26.304Z,5.53
2018-09-11T00:16:53.696Z,3.40
2018-09-11T00:19:21.025Z,3.83
2018-09-11T00:21:48.381Z,4.93
2018-09-11T00:24:15.784Z,3.47
2018-09-11T00:26:43.107Z,3.37
2018-09-11T00:29:10.442Z,3.77
2018-09-11T00:31:37.763Z,3.70
2018-09-11T00:34:05.131Z,3.10
2018-09-11T00:36:32.522Z,3.23
2018-09-11T00:38:59.968Z,3.73
2018-09-11T00:41:28.334Z,3.80
2018-09-11T00:43:55.996Z,3.43
2018-09-11T00:46:23.465Z,3.70
2018-09-11T00:48:50.807Z,3.50
2018-09-11T00:51:18.132Z,3.80
2018-09-11T00:53:45.485Z,4.57
2018-09-11T00:56:12.832Z,3.80
2018-09-11T00:58:40.203Z,3.67
2018-09-11T01:01:07.522Z,4.20
2018-09-11T01:03:34.902Z,4.33
2018-09-11T01:06:02.221Z,3.60
2018-09-11T01:08:30.189Z,4.10
2018-09-11T01:10:58.483Z,4.67
2018-09-11T01:13:25.911Z,4.37
2018-09-11T01:15:53.310Z,3.87
2018-09-11T01:18:20.720Z,3.67
2018-09-11T01:20:48.117Z,4.40
2018-09-11T01:23:15.524Z,3.57
2018-09-11T01:25:42.933Z,4.50
2018-09-11T01:28:10.314Z,3.67
2018-09-11T01:30:37.652Z,24.23
2018-09-11T01:33:04.978Z,27.17
2018-09-11T01:35:32.559Z,8.60
2018-09-11T01:38:00.622Z,5.53
2018-09-11T01:40:28.915Z,4.70
2018-09-11T01:42:56.383Z,4.10
2018-09-11T01:45:23.742Z,3.87
2018-09-11T01:47:51.077Z,3.83
2018-09-11T01:50:18.453Z,3.33
2018-09-11T01:52:45.780Z,4.23
2018-09-11T01:55:13.159Z,4.50
2018-09-11T01:57:40.459Z,3.97
2018-09-11T02:00:12.186Z,3.70
2018-09-11T02:02:39.504Z,4.33
2018-09-11T02:05:06.897Z,3.70
2018-09-11T02:07:34.204Z,4.00
2018-09-11T02:10:01.558Z,3.70
2018-09-11T02:12:29.776Z,3.60
2018-09-11T02:14:57.179Z,3.60
2018-09-11T02:17:24.518Z,4.10
2018-09-11T02:19:51.918Z,3.40
2018-09-11T02:22:19.234Z,4.63
2018-09-11T02:24:46.566Z,4.60
2018-09-11T02:27:13.905Z,8.40
2018-09-11T02:29:41.783Z,6.77
2018-09-11T02:32:10.286Z,4.83
2018-09-11T02:34:37.945Z,3.90
2018-09-11T02:37:05.334Z,4.60
2018-09-11T02:39:32.674Z,4.57
2018-09-11T02:41:59.994Z,3.92
2018-09-11T02:44:27.361Z,3.80
2018-09-11T02:46:54.686Z,3.67
2018-09-11T02:49:22.093Z,3.80
2018-09-11T02:51:49.519Z,4.10
2018-09-11T02:54:16.874Z,3.60
2018-09-11T02:56:44.232Z,6.57
2018-09-11T02:59:12.123Z,10.20
2018-09-11T03:01:40.538Z,5.13
2018-09-11T03:04:08.462Z,4.40
2018-09-11T03:06:35.875Z,4.77
2018-09-11T03:09:03.812Z,4.57
2018-09-11T03:11:31.165Z,4.50
2018-09-11T03:13:58.494Z,4.90
2018-09-11T03:16:25.894Z,4.07
2018-09-11T03:18:53.275Z,4.00
2018-09-11T03:21:20.619Z,4.20
2018-09-11T03:23:48.047Z,3.73
2018-09-11T03:26:15.414Z,4.17
2018-09-11T03:28:43.052Z,5.00
2018-09-11T03:31:11.553Z,4.63
2018-09-11T03:33:39.906Z,4.23
2018-09-11T03:36:07.316Z,4.27
2018-09-11T03:38:34.637Z,4.50
2018-09-11T03:41:02.007Z,4.13
2018-09-11T03:43:29.346Z,5.20
2018-09-11T03:45:56.734Z,4.43
2018-09-11T03:48:24.077Z,4.60
2018-09-11T03:50:51.857Z,4.50
2018-09-11T03:53:19.292Z,4.13
2018-09-11T03:55:47.181Z,4.63
2018-09-11T03:58:14.829Z,4.70
2018-09-11T04:00:42.798Z,4.33
2018-09-11T04:03:11.035Z,4.60
2018-09-11T04:05:38.595Z,4.80
2018-09-11T04:08:06.029Z,5.10
2018-09-11T04:10:33.686Z,4.30
2018-09-11T04:13:01.031Z,4.80
2018-09-11T04:15:28.405Z,5.37
2018-09-11T04:17:55.730Z,4.97
2018-09-11T04:20:23.148Z,5.53
2018-09-11T04:22:50.503Z,5.10
2018-09-11T04:25:17.862Z,5.10
2018-09-11T04:27:45.188Z,5.50
2018-09-11T04:30:13.226Z,6.07
2018-09-11T04:32:41.649Z,5.00
2018-09-11T04:35:09.109Z,4.40
2018-09-11T04:37:36.552Z,4.90
2018-09-11T04:40:03.895Z,4.40
2018-09-11T04:42:31.285Z,4.90
2018-09-11T04:44:58.624Z,5.40
2018-09-11T04:47:25.980Z,5.10
2018-09-11T04:49:53.372Z,4.87
2018-09-11T04:52:20.741Z,5.03
2018-09-11T04:54:48.126Z,5.70
2018-09-11T04:57:15.607Z,5.43
2018-09-11T04:59:43.645Z,5.83
2018-09-11T05:02:11.954Z,5.10
2018-09-11T05:04:39.397Z,5.10
2018-09-11T05:07:06.869Z,7.60
2018-09-11T05:09:34.227Z,6.40
2018-09-11T05:12:01.655Z,5.73
2018-09-11T05:14:28.963Z,5.30
2018-09-11T05:16:56.323Z,5.43
2018-09-11T05:19:23.644Z,5.67
2018-09-11T05:21:50.996Z,6.00
2018-09-11T05:24:18.314Z,6.87
2018-09-11T05:26:45.682Z,5.17
2018-09-11T05:29:14.123Z,6.60
2018-09-11T05:31:42.168Z,6.07
2018-09-11T05:34:09.511Z,5.53
2018-09-11T05:36:36.879Z,5.67
2018-09-11T05:39:04.689Z,5.57
2018-09-11T05:41:31.966Z,5.67
2018-09-11T05:43:59.304Z,6.20
2018-09-11T05:46:26.614Z,5.00
2018-09-11T05:48:54.018Z,5.43
2018-09-11T05:51:21.396Z,5.77
2018-09-11T05:53:48.738Z,5.77
2018-09-11T05:56:16.100Z,5.33
2018-09-11T05:58:44.391Z,6.13
2018-09-11T06:01:12.472Z,6.20
2018-09-11T06:03:39.948Z,6.93
2018-09-11T06:06:07.289Z,5.20
2018-09-11T06:08:34.659Z,6.27
2018-09-11T06:11:01.992Z,5.73
2018-09-11T06:13:29.380Z,6.00
2018-09-11T06:15:57.029Z,6.73
2018-09-11T06:18:24.377Z,5.80
2018-09-11T06:20:51.744Z,6.60
2018-09-11T06:23:19.099Z,6.40
2018-09-11T06:25:47.381Z,5.40
2018-09-11T06:28:15.445Z,5.23
2018-09-11T06:30:43.845Z,5.27
2018-09-11T06:33:11.364Z,5.30
2018-09-11T06:35:40.195Z,5.47
2018-09-11T06:38:07.665Z,6.03
2018-09-11T06:40:34.993Z,4.93
2018-09-11T06:43:02.418Z,10.30
2018-09-11T06:45:29.812Z,9.90
2018-09-11T06:47:57.198Z,7.20
2018-09-11T06:50:24.541Z,6.47
2018-09-11T06:52:51.974Z,5.80
2018-09-11T06:55:19.293Z,6.00
2018-09-11T06:57:46.807Z,5.70
2018-09-11T07:00:15.164Z,8.07
2018-09-11T07:02:43.026Z,5.40
2018-09-11T07:05:10.436Z,5.50
2018-09-11T07:07:37.941Z,5.97
2018-09-11T07:10:06.395Z,5.80
2018-09-11T07:12:33.740Z,5.30
2018-09-11T07:15:01.100Z,5.97
2018-09-11T07:17:28.474Z,5.23
2018-09-11T07:19:56.022Z,4.70
2018-09-11T07:22:23.238Z,5.00
2018-09-11T07:24:50.672Z,5.30
2018-09-11T07:27:18.078Z,4.65
2018-09-11T07:29:46.366Z,5.20
2018-09-11T07:32:14.793Z,5.07
2018-09-11T07:34:42.172Z,4.57
2018-09-11T07:37:10.409Z,4.20
2018-09-11T07:39:37.857Z,5.63
2018-09-11T07:42:05.200Z,4.10
2018-09-11T07:44:32.598Z,3.70
2018-09-11T07:46:59.937Z,3.60
2018-09-11T07:49:27.270Z,4.50
2018-09-11T07:51:54.600Z,5.37
2018-09-11T07:54:21.990Z,3.70
2018-09-11T07:56:49.398Z,3.83
2018-09-11T07:59:17.210Z,5.13
2018-09-11T08:01:45.499Z,6.57
2018-09-11T08:04:12.923Z,10.10
2018-09-11T08:06:40.310Z,5.70
2018-09-11T08:09:08.554Z,4.83
2018-09-11T08:11:35.955Z,4.23
2018-09-11T08:14:03.311Z,3.60
2018-09-11T08:16:30.704Z,4.37
2018-09-11T08:18:58.052Z,5.40
2018-09-11T08:21:25.937Z,5.53
2018-09-11T08:23:53.264Z,4.50
2018-09-11T08:26:20.648Z,3.80
2018-09-11T08:28:48.320Z,4.30
2018-09-11T08:31:16.699Z,3.83
2018-09-11T08:33:44.564Z,3.33
2018-09-11T08:36:11.977Z,3.57
2018-09-11T08:38:39.293Z,3.73
2018-09-11T08:41:06.711Z,2.60
2018-09-11T08:43:34.123Z,2.50
2018-09-11T08:46:01.499Z,9.20
2018-09-11T08:48:28.835Z,4.80
2018-09-11T08:50:56.210Z,3.30
2018-09-11T08:53:23.542Z,2.67
2018-09-11T08:55:50.866Z,2.83
2018-09-11T08:58:18.569Z,2.80
2018-09-11T09:00:47.018Z,3.70
2018-09-11T09:03:14.774Z,3.03
2018-09-11T09:05:42.419Z,3.77
2018-09-11T09:08:10.507Z,3.33
2018-09-11T09:10:38.792Z,2.53
2018-09-11T09:13:06.214Z,2.27
2018-09-11T09:15:33.625Z,3.40
2018-09-11T09:18:00.921Z,2.47
2018-09-11T09:20:28.257Z,2.17
2018-09-11T09:22:55.602Z,1.90
2018-09-11T09:25:22.925Z,2.83
2018-09-11T09:27:50.291Z,3.40
2018-09-11T09:30:17.748Z,3.30
2018-09-11T09:32:45.081Z,3.37
2018-09-11T09:35:12.400Z,2.67
2018-09-11T09:37:40.701Z,2.17
2018-09-11T09:40:08.787Z,2.00
2018-09-11T09:42:36.262Z,2.30
2018-09-11T09:45:03.671Z,2.80
2018-09-11T09:47:31.025Z,2.57
2018-09-11T09:49:58.325Z,2.30
2018-09-11T09:52:25.666Z,2.43
2018-09-11T09:54:53.016Z,3.27
2018-09-11T09:57:20.370Z,2.30
2018-09-11T09:59:47.706Z,2.30
2018-09-11T10:02:20.334Z,2.07
2018-09-11T10:04:47.929Z,2.33
2018-09-11T10:07:15.279Z,2.00
2018-09-11T10:09:42.756Z,2.80
2018-09-11T10:12:11.024Z,2.13
2018-09-11T10:14:39.228Z,2.70
2018-09-11T10:17:06.907Z,3.27
2018-09-11T10:19:34.222Z,3.03
2018-09-11T10:22:01.712Z,3.10
2018-09-11T10:24:29.050Z,2.10
2018-09-11T10:26:56.472Z,3.33
2018-09-11T10:29:23.802Z,2.03
2018-09-11T10:31:51.154Z,3.00
2018-09-11T10:34:18.487Z,2.10
2018-09-11T10:36:45.822Z,2.30
2018-09-11T10:39:13.202Z,2.07
2018-09-11T10:41:41.395Z,2.63
2018-09-11T10:44:09.337Z,2.33
2018-09-11T10:46:36.709Z,2.70
2018-09-11T10:49:04.059Z,3.23
2018-09-11T10:51:31.422Z,2.40
2018-09-11T10:53:58.813Z,2.43
2018-09-11T10:56:26.154Z,2.20
2018-09-11T10:58:53.514Z,2.70
2018-09-11T11:01:20.821Z,2.47
2018-09-11T11:03:48.237Z,2.90
2018-09-11T11:06:15.577Z,1.97
2018-09-11T11:08:43.218Z,3.03
2018-09-11T11:11:11.701Z,2.57
2018-09-11T11:13:39.645Z,1.97
2018-09-11T11:16:07.126Z,2.27
2018-09-11T11:18:34.490Z,1.90
2018-09-11T11:21:01.824Z,2.60
2018-09-11T11:23:29.227Z,2.10
2018-09-11T11:25:56.550Z,2.90
2018-09-11T11:28:23.894Z,2.30
2018-09-11T11:30:51.299Z,2.30
2018-09-11T11:33:18.631Z,2.50
2018-09-11T11:35:45.984Z,2.50
2018-09-11T11:38:13.663Z,2.17
2018-09-11T11:40:42.747Z,2.50
2018-09-11T11:43:10.777Z,2.43
2018-09-11T11:45:38.410Z,2.87
2018-09-11T11:48:05.818Z,2.23
2018-09-11T11:50:33.122Z,2.77
2018-09-11T11:53:00.471Z,2.80
2018-09-11T11:55:27.871Z,2.43
2018-09-11T11:57:55.191Z,2.47
2018-09-11T12:00:22.612Z,2.90
2018-09-11T12:02:50.021Z,2.40
2018-09-11T12:05:17.372Z,2.37
2018-09-11T12:07:44.793Z,1.80
2018-09-11T12:10:13.139Z,2.80
2018-09-11T12:12:41.183Z,3.20
2018-09-11T12:15:08.595Z,2.43
2018-09-11T12:17:35.920Z,2.50
2018-09-11T12:20:03.773Z,3.10
2018-09-11T12:22:31.150Z,2.40
2018-09-11T12:24:58.515Z,2.60
2018-09-11T12:27:25.867Z,2.70
2018-09-11T12:29:53.278Z,2.87
2018-09-11T12:32:20.596Z,2.73
2018-09-11T12:34:47.944Z,2.70
2018-09-11T12:37:15.274Z,1.77
2018-09-11T12:39:43.485Z,3.00
2018-09-11T12:42:11.815Z,2.57
2018-09-11T12:44:39.176Z,2.60
2018-09-11T12:47:07.227Z,2.63
2018-09-11T12:49:34.382Z,2.70
2018-09-11T12:52:01.699Z,2.73
2018-09-11T12:54:29.052Z,3.17
2018-09-11T12:56:56.379Z,2.90
2018-09-11T12:59:23.738Z,2.20
2018-09-11T13:01:51.086Z,2.67
2018-09-11T13:04:18.466Z,2.40
2018-09-11T13:06:45.854Z,2.07
2018-09-11T13:09:14.166Z,2.50
2018-09-11T13:11:42.118Z,2.37
2018-09-11T13:14:09.482Z,2.70
2018-09-11T13:16:36.824Z,2.20
2018-09-11T13:19:04.204Z,2.43
2018-09-11T13:21:31.521Z,2.47
2018-09-11T13:23:58.841Z,2.77
2018-09-11T13:26:26.249Z,2.77
2018-09-11T13:28:53.574Z,2.30
2018-09-11T13:31:20.934Z,2.27
2018-09-11T13:33:48.298Z,2.87
2018-09-11T13:36:15.817Z,2.70
2018-09-11T13:38:44.246Z,3.47
2018-09-11T13:41:12.124Z,2.50
2018-09-11T13:43:39.510Z,2.50
2018-09-11T13:46:06.851Z,3.60
2018-09-11T13:48:34.164Z,2.20
2018-09-11T13:51:01.503Z,2.07
2018-09-11T13:53:28.880Z,2.70
2018-09-11T13:55:56.328Z,3.30
2018-09-11T13:58:23.674Z,2.80
2018-09-11T14:00:51.047Z,3.03
2018-09-11T14:03:18.435Z,2.60
2018-09-11T14:05:45.977Z,2.63
2018-09-11T14:08:14.444Z,2.67
2018-09-11T14:10:42.216Z,3.17
2018-09-11T14:13:09.593Z,2.70
2018-09-11T14:15:36.953Z,3.00
2018-09-11T14:18:04.282Z,2.70
2018-09-11T14:20:31.630Z,2.77
2018-09-11T14:22:58.994Z,2.50
2018-09-11T14:25:26.377Z,2.60
2018-09-11T14:27:53.700Z,2.80
2018-09-11T14:30:21.020Z,2.70
2018-09-11T14:32:48.423Z,2.70
2018-09-11T14:35:16.187Z,2.90
2018-09-11T14:37:44.459Z,8.63
2018-09-11T14:40:11.918Z,3.40
2018-09-11T14:42:39.317Z,3.77
2018-09-11T14:45:06.768Z,2.67
2018-09-11T14:47:39.355Z,3.97
2018-09-11T14:50:06.904Z,3.30
2018-09-11T14:52:34.271Z,2.60
2018-09-11T14:55:01.618Z,4.20
2018-09-11T14:57:29.017Z,3.40
2018-09-11T14:59:56.323Z,3.00
2018-09-11T15:02:23.727Z,3.60
2018-09-11T15:04:51.145Z,3.50
2018-09-11T15:07:18.501Z,3.37
2018-09-11T15:09:46.702Z,6.33
2018-09-11T15:12:14.868Z,4.13
2018-09-11T15:14:42.172Z,3.77
2018-09-11T15:17:09.569Z,4.27
2018-09-11T15:19:36.882Z,7.97
2018-09-11T15:22:04.210Z,3.60
2018-09-11T15:24:31.539Z,4.07
2018-09-11T15:26:58.891Z,3.00
2018-09-11T15:29:26.209Z,6.03
2018-09-11T15:31:53.573Z,3.53
2018-09-11T15:34:20.916Z,3.87
2018-09-11T15:36:48.390Z,3.63
2018-09-11T15:39:16.759Z,3.60
2018-09-11T15:41:44.598Z,3.70
2018-09-11T15:44:11.994Z,2.63
2018-09-11T15:46:39.330Z,3.40
2018-09-11T15:49:06.764Z,3.23
2018-09-11T15:51:34.084Z,4.40
2018-09-11T15:54:01.474Z,3.53
2018-09-11T15:56:28.994Z,3.90
2018-09-11T15:58:56.325Z,3.70
2018-09-11T16:01:23.654Z,3.47
2018-09-11T16:03:51.051Z,4.00
2018-09-11T16:06:18.726Z,6.70
2018-09-11T16:08:47.197Z,4.00
2018-09-11T16:11:15.113Z,2.80
2018-09-11T16:13:42.512Z,3.57
2018-09-11T16:16:09.837Z,3.70
2018-09-11T16:18:37.219Z,3.50
2018-09-11T16:21:04.552Z,3.90
2018-09-11T16:23:31.964Z,3.77
2018-09-11T16:25:59.291Z,3.50
2018-09-11T16:28:26.643Z,3.37
2018-09-11T16:30:53.960Z,3.60
2018-09-11T16:33:21.318Z,4.40
2018-09-11T16:35:48.889Z,4.23
2018-09-11T16:38:17.298Z,3.53
2018-09-11T16:40:44.908Z,4.47
2018-09-11T16:43:12.349Z,2.93
2018-09-11T16:45:39.661Z,3.07
2018-09-11T16:48:06.973Z,3.73
2018-09-11T16:50:34.325Z,3.40
2018-09-11T16:53:01.725Z,3.23
2018-09-11T16:55:29.410Z,4.10
2018-09-11T16:57:56.770Z,3.30
2018-09-11T17:00:24.120Z,3.80
2018-09-11T17:02:51.461Z,3.50
2018-09-11T17:05:19.301Z,3.60
2018-09-11T17:07:47.879Z,4.10
2018-09-11T17:10:15.525Z,3.63
2018-09-11T17:12:43.050Z,3.93
2018-09-11T17:15:10.422Z,3.53
2018-09-11T17:17:37.743Z,3.50
2018-09-11T17:20:05.148Z,3.03
2018-09-11T17:22:32.460Z,3.73
2018-09-11T17:24:59.808Z,4.30
2018-09-11T17:27:27.126Z,3.60
2018-09-11T17:29:54.471Z,3.27
2018-09-11T17:32:21.794Z,3.20
2018-09-11T17:34:49.721Z,3.97
2018-09-11T17:37:17.964Z,3.30
2018-09-11T17:39:45.420Z,4.40
2018-09-11T17:42:13.236Z,3.90
2018-09-11T17:44:40.665Z,3.90
2018-09-11T17:47:07.994Z,3.60
2018-09-11T17:49:35.362Z,3.57
2018-09-11T17:52:02.700Z,2.93
2018-09-11T17:54:30.201Z,3.70
2018-09-11T17:56:57.529Z,3.93
2018-09-11T17:59:24.890Z,3.57
2018-09-11T18:01:52.258Z,4.30
2018-09-11T18:04:20.302Z,4.00
2018-09-11T18:06:48.781Z,4.60
2018-09-11T18:09:16.141Z,3.40
2018-09-11T18:11:43.550Z,3.50
2018-09-11T18:14:10.882Z,4.10
2018-09-11T18:16:38.224Z,3.47
2018-09-11T18:19:05.589Z,3.47
2018-09-11T18:21:32.925Z,3.87
2018-09-11T18:24:00.285Z,3.70
2018-09-11T18:26:27.647Z,4.20
2018-09-11T18:28:54.974Z,4.17
2018-09-11T18:31:22.315Z,5.07
2018-09-11T18:33:50.601Z,5.70
2018-09-11T18:36:18.685Z,4.00
2018-09-11T18:38:46.065Z,4.23
2018-09-11T18:41:13.982Z,3.90
2018-09-11T18:43:41.305Z,4.10
2018-09-11T18:46:08.649Z,3.53
2018-09-11T18:48:35.990Z,3.50
2018-09-11T18:51:03.359Z,3.90
2018-09-11T18:53:30.692Z,3.77
2018-09-11T18:55:58.034Z,3.83
2018-09-11T18:58:25.360Z,3.90
2018-09-11T19:00:53.010Z,3.40
2018-09-11T19:03:21.209Z,4.00
2018-09-11T19:05:49.302Z,3.97
2018-09-11T19:08:16.715Z,3.73
2018-09-11T19:10:44.075Z,3.77
2018-09-11T19:13:11.396Z,4.77
2018-09-11T19:15:38.790Z,3.83
2018-09-11T19:18:06.107Z,4.17
2018-09-11T19:20:33.425Z,3.90
2018-09-11T19:23:00.775Z,4.47
2018-09-11T19:25:28.111Z,4.13
2018-09-11T19:27:55.467Z,4.80
2018-09-11T19:30:22.906Z,5.20
2018-09-11T19:32:51.263Z,4.77
2018-09-11T19:35:19.098Z,4.37
2018-09-11T19:37:46.521Z,4.70
2018-09-11T19:40:13.873Z,4.67
2018-09-11T19:42:41.218Z,5.60
2018-09-11T19:45:08.556Z,5.00
2018-09-11T19:47:35.906Z,4.63
2018-09-11T19:50:03.684Z,4.78
2018-09-11T19:52:31.042Z,5.60
2018-09-11T19:54:58.410Z,4.50
2018-09-11T19:57:25.809Z,6.63
2018-09-11T19:59:53.297Z,4.80
2018-09-11T20:02:21.772Z,4.60
2018-09-11T20:04:49.731Z,5.03
2018-09-11T20:07:18.314Z,4.40
2018-09-11T20:09:45.674Z,4.13
2018-09-11T20:12:13.024Z,4.77
2018-09-11T20:14:40.339Z,4.50
2018-09-11T20:17:07.697Z,3.90
2018-09-11T20:19:35.030Z,4.13
2018-09-11T20:22:02.363Z,3.90
2018-09-11T20:24:29.690Z,4.37
2018-09-11T20:26:57.018Z,4.00
2018-09-11T20:29:24.425Z,4.00
2018-09-11T20:31:53.014Z,4.60
2018-09-11T20:34:21.350Z,3.73
2018-09-11T20:36:48.779Z,3.80
2018-09-11T20:39:16.139Z,4.27
2018-09-11T20:41:43.487Z,4.30
2018-09-11T20:44:11.361Z,3.93
2018-09-11T20:46:38.752Z,3.60
2018-09-11T20:49:06.138Z,4.63
2018-09-11T20:51:33.523Z,3.83
2018-09-11T20:54:00.929Z,4.47
2018-09-11T20:56:28.275Z,3.97
2018-09-11T20:58:55.634Z,3.70
2018-09-11T21:01:23.585Z,4.40
2018-09-11T21:03:51.866Z,3.73
2018-09-11T21:06:19.281Z,4.10
2018-09-11T21:08:46.649Z,3.80
2018-09-11T21:11:14.614Z,4.17
2018-09-11T21:13:41.994Z,3.53
2018-09-11T21:16:09.358Z,3.90
2018-09-11T21:18:36.724Z,4.40
2018-09-11T21:21:04.079Z,3.70
2018-09-11T21:23:31.429Z,4.00
2018-09-11T21:25:58.829Z,4.40
2018-09-11T21:28:26.206Z,4.17
2018-09-11T21:30:54.217Z,3.60
2018-09-11T21:33:22.484Z,4.23
2018-09-11T21:35:49.934Z,4.67
2018-09-11T21:38:17.419Z,4.30
2018-09-11T21:40:44.776Z,4.90
2018-09-11T21:43:12.109Z,3.80
2018-09-11T21:45:39.485Z,4.80
2018-09-11T21:48:06.828Z,4.30
2018-09-11T21:50:34.170Z,4.70
2018-09-11T21:53:01.549Z,4.47
2018-09-11T21:55:28.913Z,4.63
2018-09-11T21:57:56.239Z,4.53
2018-09-11T22:00:24.594Z,4.80
2018-09-11T22:02:52.775Z,4.57
2018-09-11T22:05:21.580Z,5.87
2018-09-11T22:07:48.985Z,4.70
2018-09-11T22:10:16.401Z,4.43
2018-09-11T22:12:43.751Z,4.57
2018-09-11T22:15:11.575Z,4.53
2018-09-11T22:17:39.106Z,4.43
2018-09-11T22:20:06.602Z,5.20
2018-09-11T22:22:33.977Z,4.93
2018-09-11T22:25:01.357Z,4.57
2018-09-11T22:27:28.851Z,4.50
2018-09-11T22:29:56.351Z,5.80
2018-09-11T22:32:24.663Z,5.20
2018-09-11T22:34:52.602Z,4.17
2018-09-11T22:37:19.990Z,4.60
2018-09-11T22:39:47.361Z,4.50
2018-09-11T22:42:14.726Z,4.50
2018-09-11T22:44:42.069Z,4.80
2018-09-11T22:47:09.405Z,5.30
2018-09-11T22:49:36.726Z,4.00
2018-09-11T22:52:04.069Z,4.90
2018-09-11T22:54:31.412Z,5.20
2018-09-11T22:56:59.069Z,5.67
2018-09-11T22:59:26.626Z,5.10
2018-09-11T23:01:55.090Z,4.30
2018-09-11T23:04:23.633Z,4.57
2018-09-11T23:06:51.053Z,4.87
2018-09-11T23:09:18.378Z,5.27
2018-09-11T23:11:45.743Z,5.50
2018-09-11T23:14:13.071Z,6.00
2018-09-11T23:16:40.439Z,4.90
2018-09-11T23:19:07.802Z,4.93
2018-09-11T23:21:35.438Z,4.97
2018-09-11T23:24:02.795Z,5.80
2018-09-11T23:26:30.264Z,4.80
2018-09-11T23:28:57.751Z,5.40
2018-09-11T23:31:26.331Z,4.93
2018-09-11T23:33:54.550Z,5.77
2018-09-11T23:36:21.991Z,6.30
2018-09-11T23:38:49.330Z,5.90
2018-09-11T23:41:16.719Z,6.07
2018-09-11T23:43:44.698Z,4.90
2018-09-11T23:46:12.070Z,6.20
2018-09-11T23:48:39.396Z,5.37
2018-09-11T23:51:06.832Z,6.03
2018-09-11T23:53:34.214Z,6.13
2018-09-11T23:56:01.573Z,4.87
2018-09-11T23:58:28.890Z,6.20
